sensor_id;sensor_type;location;lat;lon;timestamp;P1;durP1;ratioP1;P2;durP2;ratioP2
23230;SDS011;11784;49.818;8.632;2023-06-19T00:01:48;4.47;;;2.35;;
23230;SDS011;11784;49.818;8.632;2023-06-19T00:04:13;4.18;;;2.22;;
23230;SDS011;11784;49.818;8.632;2023-06-19T00:06:39;4.03;;;2.10;;
23230;SDS011;11784;49.818;8.632;2023-06-19T00:09:04;3.78;;;1.98;;
23230;SDS011;11784;49.818;8.632;2023-06-19T00:11:31;5.38;;;2.08;;
23230;SDS011;11784;49.818;8.632;2023-06-19T00:13:57;3.60;;;2.25;;
23230;SDS011;11784;49.818;8.632;2023-06-19T00:16:22;4.10;;;1.83;;
23230;SDS011;11784;49.818;8.632;2023-06-19T00:18:50;3.78;;;2.22;;
23230;SDS011;11784;49.818;8.632;2023-06-19T00:21:20;3.75;;;2.08;;
23230;SDS011;11784;49.818;8.632;2023-06-19T00:23:50;4.18;;;2.15;;
23230;SDS011;11784;49.818;8.632;2023-06-19T00:26:16;3.95;;;2.03;;
23230;SDS011;11784;49.818;8.632;2023-06-19T00:28:42;4.00;;;2.15;;
23230;SDS011;11784;49.818;8.632;2023-06-19T00:31:10;3.83;;;2.10;;
23230;SDS011;11784;49.818;8.632;2023-06-19T00:33:38;4.60;;;2.42;;
23230;SDS011;11784;49.818;8.632;2023-06-19T00:36:08;4.35;;;2.58;;
23230;SDS011;11784;49.818;8.632;2023-06-19T00:38:38;3.55;;;1.85;;
23230;SDS011;11784;49.818;8.632;2023-06-19T00:41:04;4.70;;;2.20;;
23230;SDS011;11784;49.818;8.632;2023-06-19T00:43:30;3.53;;;2.13;;
23230;SDS011;11784;49.818;8.632;2023-06-19T00:46:00;4.20;;;1.95;;
23230;SDS011;11784;49.818;8.632;2023-06-19T00:48:29;3.97;;;2.10;;
23230;SDS011;11784;49.818;8.632;2023-06-19T00:50:56;4.20;;;1.90;;
23230;SDS011;11784;49.818;8.632;2023-06-19T00:53:23;3.15;;;2.25;;
23230;SDS011;11784;49.818;8.632;2023-06-19T00:55:49;4.20;;;2.20;;
23230;SDS011;11784;49.818;8.632;2023-06-19T00:58:16;4.10;;;2.15;;
23230;SDS011;11784;49.818;8.632;2023-06-19T01:00:43;5.88;;;2.72;;
23230;SDS011;11784;49.818;8.632;2023-06-19T01:03:09;3.58;;;2.10;;
23230;SDS011;11784;49.818;8.632;2023-06-19T01:05:34;5.50;;;2.95;;
23230;SDS011;11784;49.818;8.632;2023-06-19T01:10:54;4.07;;;2.50;;
23230;SDS011;11784;49.818;8.632;2023-06-19T01:13:27;5.35;;;3.15;;
23230;SDS011;11784;49.818;8.632;2023-06-19T01:15:54;5.05;;;2.53;;
23230;SDS011;11784;49.818;8.632;2023-06-19T01:18:20;4.38;;;2.40;;
23230;SDS011;11784;49.818;8.632;2023-06-19T01:20:47;3.60;;;2.38;;
23230;SDS011;11784;49.818;8.632;2023-06-19T01:23:14;5.38;;;2.42;;
23230;SDS011;11784;49.818;8.632;2023-06-19T01:25:39;5.72;;;2.17;;
23230;SDS011;11784;49.818;8.632;2023-06-19T01:28:09;5.00;;;2.45;;
23230;SDS011;11784;49.818;8.632;2023-06-19T01:30:38;4.78;;;2.35;;
23230;SDS011;11784;49.818;8.632;2023-06-19T01:33:09;3.25;;;2.17;;
23230;SDS011;11784;49.818;8.632;2023-06-19T01:35:40;3.63;;;2.40;;
23230;SDS011;11784;49.818;8.632;2023-06-19T01:38:07;3.45;;;2.60;;
23230;SDS011;11784;49.818;8.632;2023-06-19T01:40:33;5.30;;;2.40;;
23230;SDS011;11784;49.818;8.632;2023-06-19T01:43:00;4.07;;;2.58;;
23230;SDS011;11784;49.818;8.632;2023-06-19T01:45:27;5.97;;;3.17;;
23230;SDS011;11784;49.818;8.632;2023-06-19T01:47:54;5.53;;;2.38;;
23230;SDS011;11784;49.818;8.632;2023-06-19T01:50:21;4.10;;;2.28;;
23230;SDS011;11784;49.818;8.632;2023-06-19T01:52:47;4.68;;;2.40;;
23230;SDS011;11784;49.818;8.632;2023-06-19T01:55:12;6.18;;;2.97;;
23230;SDS011;11784;49.818;8.632;2023-06-19T01:57:39;4.80;;;2.53;;
23230;SDS011;11784;49.818;8.632;2023-06-19T02:00:04;3.95;;;2.38;;
23230;SDS011;11784;49.818;8.632;2023-06-19T02:02:35;5.32;;;2.65;;
23230;SDS011;11784;49.818;8.632;2023-06-19T02:05:01;5.05;;;2.85;;
23230;SDS011;11784;49.818;8.632;2023-06-19T02:07:27;4.97;;;2.78;;
23230;SDS011;11784;49.818;8.632;2023-06-19T02:09:52;6.35;;;2.90;;
23230;SDS011;11784;49.818;8.632;2023-06-19T02:12:19;4.60;;;2.28;;
23230;SDS011;11784;49.818;8.632;2023-06-19T02:14:44;3.58;;;2.40;;
23230;SDS011;11784;49.818;8.632;2023-06-19T02:17:10;3.58;;;2.40;;
23230;SDS011;11784;49.818;8.632;2023-06-19T02:19:35;5.72;;;2.85;;
23230;SDS011;11784;49.818;8.632;2023-06-19T02:22:01;3.42;;;2.30;;
23230;SDS011;11784;49.818;8.632;2023-06-19T02:24:26;5.50;;;2.45;;
23230;SDS011;11784;49.818;8.632;2023-06-19T02:26:52;5.75;;;3.15;;
23230;SDS011;11784;49.818;8.632;2023-06-19T02:29:17;4.00;;;2.30;;
23230;SDS011;11784;49.818;8.632;2023-06-19T02:31:44;4.30;;;2.25;;
23230;SDS011;11784;49.818;8.632;2023-06-19T02:34:09;8.05;;;3.08;;
23230;SDS011;11784;49.818;8.632;2023-06-19T02:36:35;5.13;;;2.70;;
23230;SDS011;11784;49.818;8.632;2023-06-19T02:39:01;5.10;;;2.40;;
23230;SDS011;11784;49.818;8.632;2023-06-19T02:41:29;6.82;;;2.83;;
23230;SDS011;11784;49.818;8.632;2023-06-19T02:43:54;5.63;;;2.72;;
23230;SDS011;11784;49.818;8.632;2023-06-19T02:46:20;4.93;;;2.55;;
23230;SDS011;11784;49.818;8.632;2023-06-19T02:48:45;5.32;;;2.92;;
23230;SDS011;11784;49.818;8.632;2023-06-19T02:51:11;6.97;;;2.53;;
23230;SDS011;11784;49.818;8.632;2023-06-19T02:53:36;3.80;;;2.50;;
23230;SDS011;11784;49.818;8.632;2023-06-19T02:56:02;3.25;;;2.10;;
23230;SDS011;11784;49.818;8.632;2023-06-19T02:58:27;4.50;;;2.20;;
23230;SDS011;11784;49.818;8.632;2023-06-19T03:00:53;4.97;;;2.42;;
23230;SDS011;11784;49.818;8.632;2023-06-19T03:03:18;6.35;;;2.80;;
23230;SDS011;11784;49.818;8.632;2023-06-19T03:05:44;5.40;;;2.78;;
23230;SDS011;11784;49.818;8.632;2023-06-19T03:08:09;4.53;;;2.40;;
23230;SDS011;11784;49.818;8.632;2023-06-19T03:10:35;5.55;;;2.72;;
23230;SDS011;11784;49.818;8.632;2023-06-19T03:13:01;4.28;;;2.65;;
23230;SDS011;11784;49.818;8.632;2023-06-19T03:15:27;5.18;;;2.80;;
23230;SDS011;11784;49.818;8.632;2023-06-19T03:17:53;4.47;;;2.33;;
23230;SDS011;11784;49.818;8.632;2023-06-19T03:20:18;4.03;;;2.50;;
23230;SDS011;11784;49.818;8.632;2023-06-19T03:22:45;5.10;;;2.58;;
23230;SDS011;11784;49.818;8.632;2023-06-19T03:25:11;4.68;;;2.75;;
23230;SDS011;11784;49.818;8.632;2023-06-19T03:27:36;6.35;;;2.88;;
23230;SDS011;11784;49.818;8.632;2023-06-19T03:30:02;5.07;;;2.80;;
23230;SDS011;11784;49.818;8.632;2023-06-19T03:32:33;4.60;;;2.67;;
23230;SDS011;11784;49.818;8.632;2023-06-19T03:34:58;3.75;;;2.42;;
23230;SDS011;11784;49.818;8.632;2023-06-19T03:37:24;3.45;;;2.55;;
23230;SDS011;11784;49.818;8.632;2023-06-19T03:39:50;4.85;;;2.42;;
23230;SDS011;11784;49.818;8.632;2023-06-19T03:42:15;3.83;;;2.70;;
23230;SDS011;11784;49.818;8.632;2023-06-19T03:44:41;5.63;;;3.00;;
23230;SDS011;11784;49.818;8.632;2023-06-19T03:47:06;4.63;;;2.80;;
23230;SDS011;11784;49.818;8.632;2023-06-19T03:49:32;5.25;;;2.97;;
23230;SDS011;11784;49.818;8.632;2023-06-19T03:51:57;5.32;;;3.60;;
23230;SDS011;11784;49.818;8.632;2023-06-19T03:54:23;4.75;;;2.38;;
23230;SDS011;11784;49.818;8.632;2023-06-19T03:56:49;4.38;;;2.40;;
23230;SDS011;11784;49.818;8.632;2023-06-19T03:59:15;4.80;;;2.72;;
23230;SDS011;11784;49.818;8.632;2023-06-19T04:01:40;4.90;;;2.60;;
23230;SDS011;11784;49.818;8.632;2023-06-19T04:04:06;5.35;;;2.42;;
23230;SDS011;11784;49.818;8.632;2023-06-19T04:06:32;5.05;;;2.42;;
23230;SDS011;11784;49.818;8.632;2023-06-19T04:08:57;3.75;;;2.38;;
23230;SDS011;11784;49.818;8.632;2023-06-19T04:11:23;3.45;;;2.15;;
23230;SDS011;11784;49.818;8.632;2023-06-19T04:13:48;3.33;;;2.33;;
23230;SDS011;11784;49.818;8.632;2023-06-19T04:16:14;3.85;;;2.50;;
23230;SDS011;11784;49.818;8.632;2023-06-19T04:18:39;3.15;;;2.05;;
23230;SDS011;11784;49.818;8.632;2023-06-19T04:21:04;3.60;;;2.22;;
23230;SDS011;11784;49.818;8.632;2023-06-19T04:23:30;3.47;;;2.03;;
23230;SDS011;11784;49.818;8.632;2023-06-19T04:25:55;4.40;;;2.20;;
23230;SDS011;11784;49.818;8.632;2023-06-19T04:28:21;4.65;;;2.03;;
23230;SDS011;11784;49.818;8.632;2023-06-19T04:30:46;3.10;;;2.08;;
23230;SDS011;11784;49.818;8.632;2023-06-19T04:33:12;3.70;;;2.10;;
23230;SDS011;11784;49.818;8.632;2023-06-19T04:35:37;3.28;;;2.08;;
23230;SDS011;11784;49.818;8.632;2023-06-19T04:38:08;4.38;;;1.85;;
23230;SDS011;11784;49.818;8.632;2023-06-19T04:40:34;3.47;;;1.50;;
23230;SDS011;11784;49.818;8.632;2023-06-19T04:43:01;3.33;;;2.00;;
23230;SDS011;11784;49.818;8.632;2023-06-19T04:45:27;3.00;;;1.80;;
23230;SDS011;11784;49.818;8.632;2023-06-19T04:47:53;2.67;;;1.88;;
23230;SDS011;11784;49.818;8.632;2023-06-19T04:50:19;7.82;;;2.00;;
23230;SDS011;11784;49.818;8.632;2023-06-19T04:52:45;2.60;;;1.85;;
23230;SDS011;11784;49.818;8.632;2023-06-19T04:55:12;7.70;;;1.92;;
23230;SDS011;11784;49.818;8.632;2023-06-19T04:57:37;4.18;;;2.25;;
23230;SDS011;11784;49.818;8.632;2023-06-19T05:00:04;5.63;;;1.40;;
23230;SDS011;11784;49.818;8.632;2023-06-19T05:02:34;4.40;;;1.70;;
23230;SDS011;11784;49.818;8.632;2023-06-19T05:05:00;3.08;;;1.75;;
23230;SDS011;11784;49.818;8.632;2023-06-19T05:07:31;3.13;;;1.65;;
23230;SDS011;11784;49.818;8.632;2023-06-19T05:09:57;1.58;;;1.00;;
23230;SDS011;11784;49.818;8.632;2023-06-19T05:12:23;2.75;;;1.58;;
23230;SDS011;11784;49.818;8.632;2023-06-19T05:14:49;1.95;;;1.42;;
23230;SDS011;11784;49.818;8.632;2023-06-19T05:17:14;1.35;;;0.90;;
23230;SDS011;11784;49.818;8.632;2023-06-19T05:19:40;3.25;;;1.20;;
23230;SDS011;11784;49.818;8.632;2023-06-19T05:22:05;2.05;;;1.20;;
23230;SDS011;11784;49.818;8.632;2023-06-19T05:24:31;2.30;;;1.13;;
23230;SDS011;11784;49.818;8.632;2023-06-19T05:26:57;1.98;;;1.23;;
23230;SDS011;11784;49.818;8.632;2023-06-19T05:29:22;1.50;;;0.98;;
23230;SDS011;11784;49.818;8.632;2023-06-19T05:31:48;2.05;;;1.20;;
23230;SDS011;11784;49.818;8.632;2023-06-19T05:34:14;1.88;;;1.23;;
23230;SDS011;11784;49.818;8.632;2023-06-19T05:36:39;1.30;;;1.08;;
23230;SDS011;11784;49.818;8.632;2023-06-19T05:39:05;3.33;;;1.60;;
23230;SDS011;11784;49.818;8.632;2023-06-19T05:41:30;2.38;;;1.17;;
23230;SDS011;11784;49.818;8.632;2023-06-19T05:43:56;2.22;;;1.08;;
23230;SDS011;11784;49.818;8.632;2023-06-19T05:46:21;2.63;;;0.85;;
23230;SDS011;11784;49.818;8.632;2023-06-19T05:48:47;2.70;;;1.13;;
23230;SDS011;11784;49.818;8.632;2023-06-19T05:51:12;1.75;;;1.00;;
23230;SDS011;11784;49.818;8.632;2023-06-19T05:53:39;3.17;;;1.10;;
23230;SDS011;11784;49.818;8.632;2023-06-19T05:56:05;3.03;;;1.33;;
23230;SDS011;11784;49.818;8.632;2023-06-19T05:58:31;2.15;;;1.40;;
23230;SDS011;11784;49.818;8.632;2023-06-19T06:00:57;2.78;;;1.10;;
23230;SDS011;11784;49.818;8.632;2023-06-19T06:03:24;1.65;;;0.80;;
23230;SDS011;11784;49.818;8.632;2023-06-19T06:05:53;1.42;;;0.98;;
23230;SDS011;11784;49.818;8.632;2023-06-19T06:08:18;3.28;;;1.13;;
23230;SDS011;11784;49.818;8.632;2023-06-19T06:10:44;1.40;;;0.90;;
23230;SDS011;11784;49.818;8.632;2023-06-19T06:13:09;2.42;;;1.63;;
23230;SDS011;11784;49.818;8.632;2023-06-19T06:15:35;1.77;;;0.85;;
23230;SDS011;11784;49.818;8.632;2023-06-19T06:18:00;3.55;;;1.20;;
23230;SDS011;11784;49.818;8.632;2023-06-19T06:20:28;2.95;;;0.98;;
23230;SDS011;11784;49.818;8.632;2023-06-19T06:22:54;2.17;;;1.00;;
23230;SDS011;11784;49.818;8.632;2023-06-19T06:25:19;2.90;;;1.30;;
23230;SDS011;11784;49.818;8.632;2023-06-19T06:27:45;1.95;;;1.25;;
23230;SDS011;11784;49.818;8.632;2023-06-19T06:30:12;3.15;;;1.30;;
23230;SDS011;11784;49.818;8.632;2023-06-19T06:32:38;2.47;;;1.23;;
23230;SDS011;11784;49.818;8.632;2023-06-19T06:35:03;3.88;;;1.30;;
23230;SDS011;11784;49.818;8.632;2023-06-19T06:37:29;4.15;;;1.63;;
23230;SDS011;11784;49.818;8.632;2023-06-19T06:39:55;2.25;;;1.08;;
23230;SDS011;11784;49.818;8.632;2023-06-19T06:42:20;2.40;;;1.63;;
23230;SDS011;11784;49.818;8.632;2023-06-19T06:44:46;4.90;;;1.38;;
23230;SDS011;11784;49.818;8.632;2023-06-19T06:47:11;2.92;;;1.40;;
23230;SDS011;11784;49.818;8.632;2023-06-19T06:49:37;2.67;;;1.10;;
23230;SDS011;11784;49.818;8.632;2023-06-19T06:52:06;2.53;;;1.10;;
23230;SDS011;11784;49.818;8.632;2023-06-19T06:54:32;2.67;;;1.38;;
23230;SDS011;11784;49.818;8.632;2023-06-19T06:56:58;2.47;;;1.33;;
23230;SDS011;11784;49.818;8.632;2023-06-19T06:59:25;4.90;;;1.27;;
23230;SDS011;11784;49.818;8.632;2023-06-19T07:01:52;2.05;;;1.00;;
23230;SDS011;11784;49.818;8.632;2023-06-19T07:04:21;1.92;;;1.17;;
23230;SDS011;11784;49.818;8.632;2023-06-19T07:06:46;1.80;;;1.15;;
23230;SDS011;11784;49.818;8.632;2023-06-19T07:09:14;2.58;;;1.23;;
23230;SDS011;11784;49.818;8.632;2023-06-19T07:11:40;2.30;;;1.15;;
23230;SDS011;11784;49.818;8.632;2023-06-19T07:14:05;2.30;;;1.40;;
23230;SDS011;11784;49.818;8.632;2023-06-19T07:16:31;5.13;;;1.23;;
23230;SDS011;11784;49.818;8.632;2023-06-19T07:18:57;2.60;;;1.17;;
23230;SDS011;11784;49.818;8.632;2023-06-19T07:21:22;2.35;;;1.40;;
23230;SDS011;11784;49.818;8.632;2023-06-19T07:23:48;3.38;;;1.60;;
23230;SDS011;11784;49.818;8.632;2023-06-19T07:26:14;4.53;;;1.75;;
23230;SDS011;11784;49.818;8.632;2023-06-19T07:28:40;3.00;;;1.25;;
23230;SDS011;11784;49.818;8.632;2023-06-19T07:31:06;2.08;;;1.17;;
23230;SDS011;11784;49.818;8.632;2023-06-19T07:33:32;2.67;;;1.05;;
23230;SDS011;11784;49.818;8.632;2023-06-19T07:35:57;2.70;;;1.52;;
23230;SDS011;11784;49.818;8.632;2023-06-19T07:38:23;1.90;;;1.15;;
23230;SDS011;11784;49.818;8.632;2023-06-19T07:40:48;2.65;;;1.38;;
23230;SDS011;11784;49.818;8.632;2023-06-19T07:43:17;1.88;;;0.93;;
23230;SDS011;11784;49.818;8.632;2023-06-19T07:45:42;2.80;;;1.45;;
23230;SDS011;11784;49.818;8.632;2023-06-19T07:48:08;2.80;;;1.30;;
23230;SDS011;11784;49.818;8.632;2023-06-19T07:50:33;2.33;;;1.27;;
23230;SDS011;11784;49.818;8.632;2023-06-19T07:52:59;4.90;;;1.50;;
23230;SDS011;11784;49.818;8.632;2023-06-19T07:55:24;2.00;;;1.02;;
23230;SDS011;11784;49.818;8.632;2023-06-19T07:57:50;1.52;;;1.05;;
23230;SDS011;11784;49.818;8.632;2023-06-19T08:00:17;2.00;;;1.33;;
23230;SDS011;11784;49.818;8.632;2023-06-19T08:02:43;2.58;;;1.23;;
23230;SDS011;11784;49.818;8.632;2023-06-19T08:05:09;2.63;;;1.17;;
23230;SDS011;11784;49.818;8.632;2023-06-19T08:07:35;2.35;;;1.20;;
23230;SDS011;11784;49.818;8.632;2023-06-19T08:10:01;1.95;;;1.35;;
23230;SDS011;11784;49.818;8.632;2023-06-19T08:12:29;2.28;;;1.15;;
23230;SDS011;11784;49.818;8.632;2023-06-19T08:14:54;3.05;;;1.38;;
23230;SDS011;11784;49.818;8.632;2023-06-19T08:17:20;2.90;;;1.60;;
23230;SDS011;11784;49.818;8.632;2023-06-19T08:19:45;3.05;;;1.65;;
23230;SDS011;11784;49.818;8.632;2023-06-19T08:22:12;3.50;;;1.33;;
23230;SDS011;11784;49.818;8.632;2023-06-19T08:24:37;2.45;;;1.65;;
23230;SDS011;11784;49.818;8.632;2023-06-19T08:27:05;2.90;;;1.50;;
23230;SDS011;11784;49.818;8.632;2023-06-19T08:29:31;2.60;;;1.27;;
23230;SDS011;11784;49.818;8.632;2023-06-19T08:31:57;1.95;;;1.08;;
23230;SDS011;11784;49.818;8.632;2023-06-19T08:34:22;2.85;;;1.35;;
23230;SDS011;11784;49.818;8.632;2023-06-19T08:36:48;2.42;;;1.40;;
23230;SDS011;11784;49.818;8.632;2023-06-19T08:39:13;2.55;;;1.75;;
23230;SDS011;11784;49.818;8.632;2023-06-19T08:41:39;2.75;;;1.33;;
23230;SDS011;11784;49.818;8.632;2023-06-19T08:44:06;4.78;;;1.75;;
23230;SDS011;11784;49.818;8.632;2023-06-19T08:46:32;2.00;;;1.27;;
23230;SDS011;11784;49.818;8.632;2023-06-19T08:48:59;2.28;;;1.35;;
23230;SDS011;11784;49.818;8.632;2023-06-19T08:51:26;3.33;;;1.52;;
23230;SDS011;11784;49.818;8.632;2023-06-19T08:53:59;3.60;;;1.35;;
23230;SDS011;11784;49.818;8.632;2023-06-19T08:56:29;1.88;;;1.13;;
23230;SDS011;11784;49.818;8.632;2023-06-19T08:59:07;2.22;;;1.30;;
23230;SDS011;11784;49.818;8.632;2023-06-19T09:01:35;3.28;;;1.55;;
23230;SDS011;11784;49.818;8.632;2023-06-19T09:04:07;2.58;;;1.60;;
23230;SDS011;11784;49.818;8.632;2023-06-19T09:06:45;2.45;;;1.17;;
23230;SDS011;11784;49.818;8.632;2023-06-19T09:09:14;1.30;;;1.10;;
23230;SDS011;11784;49.818;8.632;2023-06-19T09:11:40;2.75;;;1.55;;
23230;SDS011;11784;49.818;8.632;2023-06-19T09:14:09;3.17;;;1.60;;
23230;SDS011;11784;49.818;8.632;2023-06-19T09:16:36;2.10;;;1.30;;
23230;SDS011;11784;49.818;8.632;2023-06-19T09:19:06;2.03;;;1.30;;
23230;SDS011;11784;49.818;8.632;2023-06-19T09:21:34;3.95;;;1.73;;
23230;SDS011;11784;49.818;8.632;2023-06-19T09:24:05;3.42;;;1.60;;
23230;SDS011;11784;49.818;8.632;2023-06-19T09:26:32;2.50;;;1.25;;
23230;SDS011;11784;49.818;8.632;2023-06-19T09:28:58;2.45;;;1.40;;
23230;SDS011;11784;49.818;8.632;2023-06-19T09:31:34;4.00;;;1.73;;
23230;SDS011;11784;49.818;8.632;2023-06-19T09:33:59;2.72;;;1.85;;
23230;SDS011;11784;49.818;8.632;2023-06-19T09:36:25;3.17;;;1.77;;
23230;SDS011;11784;49.818;8.632;2023-06-19T09:38:51;2.53;;;1.33;;
23230;SDS011;11784;49.818;8.632;2023-06-19T09:41:17;2.75;;;1.50;;
23230;SDS011;11784;49.818;8.632;2023-06-19T09:43:46;3.80;;;1.50;;
23230;SDS011;11784;49.818;8.632;2023-06-19T09:46:12;2.78;;;1.52;;
23230;SDS011;11784;49.818;8.632;2023-06-19T09:48:43;2.28;;;1.52;;
23230;SDS011;11784;49.818;8.632;2023-06-19T09:51:12;3.58;;;1.52;;
23230;SDS011;11784;49.818;8.632;2023-06-19T09:53:44;2.35;;;1.33;;
23230;SDS011;11784;49.818;8.632;2023-06-19T09:56:12;3.25;;;1.70;;
23230;SDS011;11784;49.818;8.632;2023-06-19T09:58:38;1.85;;;1.35;;
23230;SDS011;11784;49.818;8.632;2023-06-19T10:01:05;3.75;;;1.60;;
23230;SDS011;11784;49.818;8.632;2023-06-19T10:03:32;2.15;;;1.27;;
23230;SDS011;11784;49.818;8.632;2023-06-19T10:06:00;2.47;;;1.30;;
23230;SDS011;11784;49.818;8.632;2023-06-19T10:08:31;3.42;;;1.80;;
23230;SDS011;11784;49.818;8.632;2023-06-19T10:11:04;5.05;;;1.88;;
23230;SDS011;11784;49.818;8.632;2023-06-19T10:13:31;8.35;;;3.05;;
23230;SDS011;11784;49.818;8.632;2023-06-19T10:15:59;3.83;;;1.60;;
23230;SDS011;11784;49.818;8.632;2023-06-19T10:18:25;2.97;;;1.67;;
23230;SDS011;11784;49.818;8.632;2023-06-19T10:20:52;2.35;;;1.23;;
23230;SDS011;11784;49.818;8.632;2023-06-19T10:23:23;2.03;;;1.30;;
23230;SDS011;11784;49.818;8.632;2023-06-19T10:25:56;2.40;;;1.25;;
23230;SDS011;11784;49.818;8.632;2023-06-19T10:28:25;3.45;;;1.40;;
23230;SDS011;11784;49.818;8.632;2023-06-19T10:31:06;2.58;;;1.30;;
23230;SDS011;11784;49.818;8.632;2023-06-19T10:33:34;4.43;;;1.23;;
23230;SDS011;11784;49.818;8.632;2023-06-19T10:36:18;2.92;;;1.85;;
23230;SDS011;11784;49.818;8.632;2023-06-19T10:38:46;2.25;;;1.55;;
23230;SDS011;11784;49.818;8.632;2023-06-19T10:41:21;2.08;;;1.20;;
23230;SDS011;11784;49.818;8.632;2023-06-19T10:43:54;3.00;;;1.58;;
23230;SDS011;11784;49.818;8.632;2023-06-19T10:46:21;2.28;;;1.63;;
23230;SDS011;11784;49.818;8.632;2023-06-19T10:48:48;2.03;;;1.40;;
23230;SDS011;11784;49.818;8.632;2023-06-19T10:51:20;2.17;;;1.30;;
23230;SDS011;11784;49.818;8.632;2023-06-19T10:53:48;2.03;;;1.30;;
23230;SDS011;11784;49.818;8.632;2023-06-19T10:56:15;2.55;;;1.25;;
23230;SDS011;11784;49.818;8.632;2023-06-19T10:58:45;1.80;;;1.30;;
23230;SDS011;11784;49.818;8.632;2023-06-19T11:01:12;5.10;;;1.70;;
23230;SDS011;11784;49.818;8.632;2023-06-19T11:03:37;2.85;;;1.33;;
23230;SDS011;11784;49.818;8.632;2023-06-19T11:06:03;3.08;;;1.38;;
23230;SDS011;11784;49.818;8.632;2023-06-19T11:08:29;1.92;;;1.20;;
23230;SDS011;11784;49.818;8.632;2023-06-19T11:10:54;2.53;;;1.30;;
23230;SDS011;11784;49.818;8.632;2023-06-19T11:13:20;4.50;;;1.65;;
23230;SDS011;11784;49.818;8.632;2023-06-19T11:15:49;2.30;;;1.25;;
23230;SDS011;11784;49.818;8.632;2023-06-19T11:18:16;2.22;;;1.13;;
23230;SDS011;11784;49.818;8.632;2023-06-19T11:20:43;2.10;;;1.20;;
23230;SDS011;11784;49.818;8.632;2023-06-19T11:23:15;3.88;;;1.75;;
23230;SDS011;11784;49.818;8.632;2023-06-19T11:25:41;2.25;;;1.30;;
23230;SDS011;11784;49.818;8.632;2023-06-19T11:28:13;2.17;;;1.10;;
23230;SDS011;11784;49.818;8.632;2023-06-19T11:30:40;1.73;;;1.30;;
23230;SDS011;11784;49.818;8.632;2023-06-19T11:35:59;2.38;;;1.15;;
23230;SDS011;11784;49.818;8.632;2023-06-19T11:38:27;2.53;;;1.40;;
23230;SDS011;11784;49.818;8.632;2023-06-19T11:40:54;2.50;;;1.60;;
23230;SDS011;11784;49.818;8.632;2023-06-19T11:43:24;1.58;;;1.02;;
23230;SDS011;11784;49.818;8.632;2023-06-19T11:45:50;2.60;;;1.23;;
23230;SDS011;11784;49.818;8.632;2023-06-19T11:48:26;2.13;;;1.45;;
23230;SDS011;11784;49.818;8.632;2023-06-19T11:50:56;3.65;;;1.40;;
23230;SDS011;11784;49.818;8.632;2023-06-19T11:53:22;2.05;;;1.25;;
23230;SDS011;11784;49.818;8.632;2023-06-19T11:55:51;2.45;;;1.50;;
23230;SDS011;11784;49.818;8.632;2023-06-19T11:58:16;1.80;;;1.10;;
23230;SDS011;11784;49.818;8.632;2023-06-19T12:00:44;4.40;;;1.70;;
23230;SDS011;11784;49.818;8.632;2023-06-19T12:03:09;1.83;;;1.10;;
23230;SDS011;11784;49.818;8.632;2023-06-19T12:05:36;2.55;;;1.48;;
23230;SDS011;11784;49.818;8.632;2023-06-19T12:08:03;2.10;;;1.40;;
23230;SDS011;11784;49.818;8.632;2023-06-19T12:10:30;2.17;;;1.40;;
23230;SDS011;11784;49.818;8.632;2023-06-19T12:12:59;2.58;;;1.20;;
23230;SDS011;11784;49.818;8.632;2023-06-19T12:15:25;2.38;;;1.48;;
23230;SDS011;11784;49.818;8.632;2023-06-19T12:17:51;3.92;;;1.40;;
23230;SDS011;11784;49.818;8.632;2023-06-19T12:20:17;3.50;;;1.50;;
23230;SDS011;11784;49.818;8.632;2023-06-19T12:22:44;2.65;;;1.48;;
23230;SDS011;11784;49.818;8.632;2023-06-19T12:25:09;3.05;;;1.70;;
23230;SDS011;11784;49.818;8.632;2023-06-19T12:27:36;2.92;;;1.60;;
23230;SDS011;11784;49.818;8.632;2023-06-19T12:30:06;3.10;;;1.70;;
23230;SDS011;11784;49.818;8.632;2023-06-19T12:32:36;3.15;;;1.80;;
23230;SDS011;11784;49.818;8.632;2023-06-19T12:35:02;2.00;;;1.10;;
23230;SDS011;11784;49.818;8.632;2023-06-19T12:37:28;2.50;;;1.60;;
23230;SDS011;11784;49.818;8.632;2023-06-19T12:39:54;2.97;;;1.65;;
23230;SDS011;11784;49.818;8.632;2023-06-19T12:42:19;2.58;;;1.50;;
23230;SDS011;11784;49.818;8.632;2023-06-19T12:44:45;1.83;;;1.33;;
23230;SDS011;11784;49.818;8.632;2023-06-19T12:47:11;2.17;;;1.35;;
23230;SDS011;11784;49.818;8.632;2023-06-19T12:49:37;2.08;;;1.30;;
23230;SDS011;11784;49.818;8.632;2023-06-19T12:52:02;3.22;;;1.52;;
23230;SDS011;11784;49.818;8.632;2023-06-19T12:54:28;2.92;;;1.55;;
23230;SDS011;11784;49.818;8.632;2023-06-19T12:56:54;1.70;;;1.25;;
23230;SDS011;11784;49.818;8.632;2023-06-19T12:59:22;3.38;;;1.63;;
23230;SDS011;11784;49.818;8.632;2023-06-19T13:01:48;3.83;;;1.50;;
23230;SDS011;11784;49.818;8.632;2023-06-19T13:04:19;3.17;;;1.60;;
23230;SDS011;11784;49.818;8.632;2023-06-19T13:06:45;2.30;;;1.17;;
23230;SDS011;11784;49.818;8.632;2023-06-19T13:09:10;3.85;;;2.25;;
23230;SDS011;11784;49.818;8.632;2023-06-19T13:11:36;3.00;;;1.40;;
23230;SDS011;11784;49.818;8.632;2023-06-19T13:14:02;2.95;;;1.52;;
23230;SDS011;11784;49.818;8.632;2023-06-19T13:16:30;2.58;;;1.40;;
23230;SDS011;11784;49.818;8.632;2023-06-19T13:18:56;2.50;;;1.45;;
23230;SDS011;11784;49.818;8.632;2023-06-19T13:21:21;2.55;;;1.30;;
23230;SDS011;11784;49.818;8.632;2023-06-19T13:23:49;2.42;;;1.23;;
23230;SDS011;11784;49.818;8.632;2023-06-19T13:26:15;3.33;;;1.45;;
23230;SDS011;11784;49.818;8.632;2023-06-19T13:28:40;2.10;;;1.33;;
23230;SDS011;11784;49.818;8.632;2023-06-19T13:31:06;2.25;;;1.25;;
23230;SDS011;11784;49.818;8.632;2023-06-19T13:33:31;2.72;;;1.42;;
23230;SDS011;11784;49.818;8.632;2023-06-19T13:35:57;2.55;;;1.20;;
23230;SDS011;11784;49.818;8.632;2023-06-19T13:38:22;1.80;;;1.15;;
23230;SDS011;11784;49.818;8.632;2023-06-19T13:40:49;2.10;;;1.08;;
23230;SDS011;11784;49.818;8.632;2023-06-19T13:43:15;2.38;;;1.17;;
23230;SDS011;11784;49.818;8.632;2023-06-19T13:45:41;2.05;;;1.20;;
23230;SDS011;11784;49.818;8.632;2023-06-19T13:48:07;4.05;;;1.10;;
23230;SDS011;11784;49.818;8.632;2023-06-19T13:50:32;1.77;;;1.10;;
23230;SDS011;11784;49.818;8.632;2023-06-19T13:52:59;2.28;;;1.40;;
23230;SDS011;11784;49.818;8.632;2023-06-19T13:55:25;1.90;;;1.08;;
23230;SDS011;11784;49.818;8.632;2023-06-19T13:57:51;2.10;;;1.08;;
23230;SDS011;11784;49.818;8.632;2023-06-19T14:00:17;1.98;;;1.20;;
23230;SDS011;11784;49.818;8.632;2023-06-19T14:02:43;1.75;;;1.25;;
23230;SDS011;11784;49.818;8.632;2023-06-19T14:05:09;2.22;;;0.90;;
23230;SDS011;11784;49.818;8.632;2023-06-19T14:07:35;2.15;;;1.15;;
23230;SDS011;11784;49.818;8.632;2023-06-19T14:10:02;1.63;;;1.02;;
23230;SDS011;11784;49.818;8.632;2023-06-19T14:12:28;2.60;;;1.40;;
23230;SDS011;11784;49.818;8.632;2023-06-19T14:14:54;2.95;;;1.30;;
23230;SDS011;11784;49.818;8.632;2023-06-19T14:17:20;3.03;;;1.20;;
23230;SDS011;11784;49.818;8.632;2023-06-19T14:19:46;1.35;;;1.02;;
23230;SDS011;11784;49.818;8.632;2023-06-19T14:22:12;1.95;;;0.98;;
23230;SDS011;11784;49.818;8.632;2023-06-19T14:24:37;3.83;;;1.50;;
23230;SDS011;11784;49.818;8.632;2023-06-19T14:27:03;1.73;;;0.90;;
23230;SDS011;11784;49.818;8.632;2023-06-19T14:29:29;1.17;;;0.80;;
23230;SDS011;11784;49.818;8.632;2023-06-19T14:31:54;2.58;;;1.38;;
23230;SDS011;11784;49.818;8.632;2023-06-19T14:34:20;3.10;;;1.20;;
23230;SDS011;11784;49.818;8.632;2023-06-19T14:36:45;2.03;;;0.90;;
23230;SDS011;11784;49.818;8.632;2023-06-19T14:39:11;2.92;;;1.38;;
23230;SDS011;11784;49.818;8.632;2023-06-19T14:41:37;2.35;;;1.30;;
23230;SDS011;11784;49.818;8.632;2023-06-19T14:44:03;1.30;;;0.90;;
23230;SDS011;11784;49.818;8.632;2023-06-19T14:46:29;2.83;;;1.20;;
23230;SDS011;11784;49.818;8.632;2023-06-19T14:48:56;3.72;;;1.20;;
23230;SDS011;11784;49.818;8.632;2023-06-19T14:51:24;1.80;;;0.77;;